createdAt,value
2023-05-13T00:01:19.013Z,9.40
2023-05-13T00:04:07.114Z,9.40
2023-05-13T00:06:54.305Z,9.30
2023-05-13T00:09:41.755Z,9.30
2023-05-13T00:12:31.222Z,9.30
2023-05-13T00:15:18.745Z,9.20
2023-05-13T00:18:06.234Z,9.20
2023-05-13T00:20:53.939Z,9.20
2023-05-13T00:23:41.951Z,9.10
2023-05-13T00:26:29.566Z,9.10
2023-05-13T00:29:18.686Z,9.00
2023-05-13T00:32:07.250Z,9.00
2023-05-13T00:34:55.975Z,8.90
2023-05-13T00:37:43.257Z,8.90
2023-05-13T00:40:30.917Z,8.80
2023-05-13T00:43:18.637Z,8.80
2023-05-13T00:46:08.034Z,8.80
2023-05-13T00:48:56.002Z,8.80
2023-05-13T00:51:44.300Z,8.80
2023-05-13T00:54:31.694Z,8.80
2023-05-13T00:57:19.936Z,8.80
2023-05-13T01:00:09.111Z,8.90
2023-05-13T01:03:03.250Z,8.90
2023-05-13T01:06:00.160Z,9.00
2023-05-13T01:08:57.776Z,9.00
2023-05-13T01:11:46.796Z,9.00
2023-05-13T01:14:37.016Z,9.00
2023-05-13T01:17:31.991Z,9.00
2023-05-13T01:20:24.152Z,8.90
2023-05-13T01:23:14.100Z,8.90
2023-05-13T01:26:01.867Z,8.80
2023-05-13T01:28:51.992Z,8.70
2023-05-13T01:31:42.540Z,8.60
2023-05-13T01:34:30.921Z,8.60
2023-05-13T01:37:18.691Z,8.50
2023-05-13T01:40:24.073Z,8.40
2023-05-13T01:43:19.206Z,8.30
2023-05-13T01:46:13.613Z,8.20
2023-05-13T01:49:01.699Z,8.20
2023-05-13T01:51:49.426Z,8.10
2023-05-13T01:54:37.210Z,8.00
2023-05-13T01:57:30.899Z,8.00
2023-05-13T02:00:19.633Z,7.90
2023-05-13T02:03:10.330Z,7.80
2023-05-13T02:05:57.859Z,7.70
2023-05-13T02:08:45.380Z,7.60
2023-05-13T02:11:32.971Z,7.50
2023-05-13T02:14:22.058Z,7.50
2023-05-13T02:17:09.464Z,7.40
2023-05-13T02:19:57.182Z,7.40
2023-05-13T02:22:44.971Z,7.30
2023-05-13T02:25:32.248Z,7.20
2023-05-13T02:28:20.358Z,7.10
2023-05-13T02:31:08.943Z,7.00
2023-05-13T02:33:56.473Z,6.90
2023-05-13T02:36:43.802Z,6.90
2023-05-13T02:39:31.343Z,6.80
2023-05-13T02:42:20.176Z,6.80
2023-05-13T02:45:09.498Z,6.70
2023-05-13T02:48:01.080Z,6.70
2023-05-13T02:50:50.271Z,6.70
2023-05-13T02:53:37.829Z,6.70
2023-05-13T02:56:27.731Z,6.70
2023-05-13T02:59:15.132Z,6.70
2023-05-13T03:02:02.700Z,6.70
2023-05-13T03:04:51.671Z,6.70
2023-05-13T03:07:38.987Z,6.70
2023-05-13T03:10:26.462Z,6.60
2023-05-13T03:13:14.079Z,6.60
2023-05-13T03:16:01.506Z,6.50
2023-05-13T03:18:49.344Z,6.50
2023-05-13T03:21:39.610Z,6.40
2023-05-13T03:24:30.549Z,6.40
2023-05-13T03:27:18.925Z,6.40
2023-05-13T03:30:07.772Z,6.40
2023-05-13T03:33:02.574Z,6.30
2023-05-13T03:35:50.467Z,6.20
2023-05-13T03:38:44.809Z,6.30
2023-05-13T03:41:32.807Z,6.30
2023-05-13T03:44:21.116Z,6.30
2023-05-13T03:47:09.160Z,6.40
2023-05-13T03:49:57.125Z,6.40
2023-05-13T03:52:46.960Z,6.50
2023-05-13T03:55:37.384Z,6.60
2023-05-13T03:58:25.278Z,6.70
2023-05-13T04:01:12.950Z,6.80
2023-05-13T04:04:00.352Z,6.90
2023-05-13T04:06:47.737Z,6.90
2023-05-13T04:09:35.516Z,7.00
2023-05-13T04:12:24.988Z,7.10
2023-05-13T04:15:12.995Z,7.20
2023-05-13T04:18:01.499Z,7.40
2023-05-13T04:20:49.294Z,7.50
2023-05-13T04:23:37.014Z,7.60
2023-05-13T04:26:24.464Z,7.70
2023-05-13T04:29:13.529Z,7.80
2023-05-13T04:32:02.754Z,8.00
2023-05-13T04:34:50.675Z,8.10
2023-05-13T04:37:38.997Z,8.30
2023-05-13T04:40:28.918Z,8.40
2023-05-13T04:43:19.635Z,8.60
2023-05-13T04:46:13.147Z,8.70
2023-05-13T04:49:00.798Z,8.90
2023-05-13T04:51:48.636Z,9.10
2023-05-13T04:54:39.099Z,9.20
2023-05-13T04:57:27.727Z,9.40
2023-05-13T05:00:16.637Z,9.60
2023-05-13T05:03:07.620Z,9.70
2023-05-13T05:05:55.367Z,9.90
2023-05-13T05:08:45.052Z,10.00
2023-05-13T05:11:32.683Z,10.20
2023-05-13T05:14:20.330Z,10.30
2023-05-13T05:17:09.627Z,10.50
2023-05-13T05:19:58.736Z,10.60
2023-05-13T05:22:46.931Z,10.80
2023-05-13T05:25:34.602Z,10.90
2023-05-13T05:28:22.455Z,11.10
2023-05-13T05:31:10.536Z,11.30
2023-05-13T05:34:01.071Z,11.40
2023-05-13T05:36:50.390Z,11.60
2023-05-13T05:39:41.220Z,11.80
2023-05-13T05:42:29.048Z,11.90
2023-05-13T05:45:16.356Z,12.00
2023-05-13T05:48:04.353Z,12.10
2023-05-13T05:50:52.305Z,12.20
2023-05-13T05:53:47.882Z,12.40
2023-05-13T05:56:37.430Z,12.50
2023-05-13T05:59:25.115Z,12.50
2023-05-13T06:02:12.897Z,12.60
2023-05-13T06:05:00.733Z,12.70
2023-05-13T06:07:48.216Z,12.90
2023-05-13T06:10:38.533Z,13.00
2023-05-13T06:13:26.389Z,13.10
2023-05-13T06:16:13.672Z,13.30
2023-05-13T06:19:01.264Z,13.40
2023-05-13T06:21:48.768Z,13.50
2023-05-13T06:24:36.145Z,13.60
2023-05-13T06:27:25.307Z,13.70
2023-05-13T06:30:12.960Z,13.80
2023-05-13T06:33:03.101Z,13.90
2023-05-13T06:35:51.578Z,14.00
2023-05-13T06:38:42.196Z,14.20
2023-05-13T06:41:29.590Z,14.30
2023-05-13T06:44:24.358Z,14.40
2023-05-13T06:47:16.416Z,14.60
2023-05-13T06:50:04.908Z,14.80
2023-05-13T06:52:52.769Z,15.00
2023-05-13T06:55:41.907Z,15.30
2023-05-13T06:58:29.578Z,15.50
2023-05-13T07:01:18.490Z,15.70
2023-05-13T07:04:06.653Z,15.80
2023-05-13T07:06:54.780Z,16.00
2023-05-13T07:09:42.211Z,16.10
2023-05-13T07:12:29.655Z,16.30
2023-05-13T07:15:17.577Z,16.50
2023-05-13T07:18:06.553Z,16.60
2023-05-13T07:20:54.303Z,16.70
2023-05-13T07:23:43.702Z,16.80
2023-05-13T07:26:32.200Z,16.90
2023-05-13T07:29:19.943Z,17.00
2023-05-13T07:32:08.597Z,17.20
2023-05-13T07:34:57.953Z,17.50
2023-05-13T07:37:45.904Z,17.70
2023-05-13T07:40:33.527Z,17.80
2023-05-13T07:43:23.962Z,18.00
2023-05-13T07:46:11.885Z,18.10
2023-05-13T07:48:59.227Z,18.30
2023-05-13T07:51:48.098Z,18.50
2023-05-13T07:54:35.522Z,18.60
2023-05-13T07:57:23.083Z,18.70
2023-05-13T08:00:11.675Z,18.70
2023-05-13T08:03:02.643Z,18.80
2023-05-13T08:05:50.132Z,18.90
2023-05-13T08:08:38.880Z,19.10
2023-05-13T08:11:26.583Z,19.30
2023-05-13T08:14:14.210Z,19.30
2023-05-13T08:17:01.935Z,19.50
2023-05-13T08:19:49.596Z,19.60
2023-05-13T08:22:37.380Z,19.90
2023-05-13T08:25:26.559Z,20.00
2023-05-13T08:28:13.960Z,20.10
2023-05-13T08:31:02.817Z,20.10
2023-05-13T08:33:50.257Z,20.20
2023-05-13T08:36:37.717Z,20.20
2023-05-13T08:39:25.438Z,20.40
2023-05-13T08:42:19.375Z,20.50
2023-05-13T08:45:09.930Z,20.30
2023-05-13T08:47:59.524Z,20.10
2023-05-13T08:50:47.685Z,20.10
2023-05-13T08:53:36.405Z,20.40
2023-05-13T08:56:25.705Z,20.60
2023-05-13T08:59:14.433Z,20.90
2023-05-13T09:02:03.908Z,21.00
2023-05-13T09:04:56.302Z,21.00
2023-05-13T09:07:43.828Z,21.10
2023-05-13T09:10:31.390Z,21.20
2023-05-13T09:13:19.427Z,21.30
2023-05-13T09:16:08.763Z,21.70
2023-05-13T09:19:00.573Z,21.90
2023-05-13T09:21:48.285Z,22.10
2023-05-13T09:24:36.245Z,22.10
2023-05-13T09:27:38.272Z,22.20
2023-05-13T09:30:26.174Z,22.60
2023-05-13T09:33:16.745Z,22.90
2023-05-13T09:36:05.984Z,23.00
2023-05-13T09:38:56.353Z,23.20
2023-05-13T09:41:43.932Z,23.40
2023-05-13T09:44:31.772Z,23.70
2023-05-13T09:47:19.302Z,23.70
2023-05-13T09:50:10.821Z,23.80
2023-05-13T09:52:58.606Z,23.90
2023-05-13T09:55:47.524Z,23.90
2023-05-13T09:58:34.953Z,23.80
2023-05-13T10:01:23.483Z,23.80
2023-05-13T10:04:11.694Z,24.00
2023-05-13T10:07:03.317Z,24.10
2023-05-13T10:09:51.658Z,24.20
2023-05-13T10:12:43.140Z,24.10
2023-05-13T10:15:31.146Z,24.00
2023-05-13T10:18:19.443Z,24.10
2023-05-13T10:21:07.949Z,24.10
2023-05-13T10:23:57.837Z,24.30
2023-05-13T10:26:46.437Z,24.20
2023-05-13T10:29:35.431Z,24.20
2023-05-13T10:32:24.922Z,24.40
2023-05-13T10:35:15.035Z,24.40
2023-05-13T10:38:07.005Z,24.40
2023-05-13T10:41:10.080Z,24.60
2023-05-13T10:43:59.165Z,24.80
2023-05-13T10:46:49.162Z,24.80
2023-05-13T10:49:37.570Z,24.70
2023-05-13T10:52:25.170Z,24.20
2023-05-13T10:55:19.912Z,23.70
2023-05-13T10:58:16.273Z,23.20
2023-05-13T11:01:17.683Z,22.90
2023-05-13T11:04:06.889Z,22.60
2023-05-13T11:06:54.619Z,22.30
2023-05-13T11:09:42.201Z,22.10
2023-05-13T11:12:29.684Z,22.30
2023-05-13T11:15:24.261Z,22.40
2023-05-13T11:18:12.641Z,22.50
2023-05-13T11:21:05.639Z,22.50
2023-05-13T11:23:56.893Z,22.50
2023-05-13T11:26:49.157Z,22.50
2023-05-13T11:29:38.932Z,22.20
2023-05-13T11:32:56.653Z,22.10
2023-05-13T11:35:54.226Z,22.20
2023-05-13T11:38:42.008Z,22.50
2023-05-13T11:41:33.160Z,23.00
2023-05-13T11:44:22.173Z,23.60
2023-05-13T11:47:09.629Z,23.60
2023-05-13T11:49:59.407Z,23.40
2023-05-13T11:52:47.321Z,23.00
2023-05-13T11:55:36.386Z,22.70
2023-05-13T11:58:23.827Z,22.30
2023-05-13T12:01:15.976Z,22.00
2023-05-13T12:04:03.762Z,21.90
2023-05-13T12:06:52.962Z,22.00
2023-05-13T12:09:40.426Z,22.10
2023-05-13T12:12:30.109Z,22.10
2023-05-13T12:15:19.757Z,22.40
2023-05-13T12:18:08.280Z,22.90
2023-05-13T12:20:55.917Z,23.20
2023-05-13T12:23:44.680Z,23.30
2023-05-13T12:26:32.346Z,23.30
2023-05-13T12:29:19.700Z,23.00
2023-05-13T12:32:08.212Z,22.90
2023-05-13T12:34:55.677Z,22.60
2023-05-13T12:37:43.723Z,22.30
2023-05-13T12:40:33.065Z,22.20
2023-05-13T12:43:20.950Z,22.10
2023-05-13T12:46:09.011Z,22.10
2023-05-13T12:48:57.655Z,22.00
2023-05-13T12:51:45.150Z,21.90
2023-05-13T12:54:32.870Z,21.90
2023-05-13T12:57:21.942Z,22.10
2023-05-13T13:00:12.696Z,22.40
2023-05-13T13:03:00.302Z,22.40
2023-05-13T13:05:48.177Z,22.30
2023-05-13T13:08:36.105Z,22.20
2023-05-13T13:11:23.922Z,22.10
2023-05-13T13:14:12.680Z,21.90
2023-05-13T13:17:00.032Z,21.70
2023-05-13T13:19:47.726Z,21.60
2023-05-13T13:22:37.101Z,21.60
2023-05-13T13:25:24.973Z,21.70
2023-05-13T13:28:12.820Z,21.80
2023-05-13T13:31:01.717Z,22.00
2023-05-13T13:33:49.382Z,21.90
2023-05-13T13:36:37.140Z,21.80
2023-05-13T13:39:24.416Z,21.60
2023-05-13T13:42:11.766Z,21.50
2023-05-13T13:44:59.210Z,21.20
2023-05-13T13:47:48.111Z,21.00
2023-05-13T13:50:35.721Z,20.80
2023-05-13T13:53:23.382Z,20.80
2023-05-13T13:56:11.100Z,20.70
2023-05-13T13:58:58.823Z,20.40
2023-05-13T14:01:46.917Z,20.30
2023-05-13T14:04:37.197Z,20.20
2023-05-13T14:07:24.721Z,20.20
2023-05-13T14:10:12.239Z,20.20
2023-05-13T14:12:59.786Z,20.20
2023-05-13T14:15:47.183Z,20.20
2023-05-13T14:18:34.679Z,20.20
2023-05-13T14:21:23.544Z,20.20
2023-05-13T14:24:12.038Z,20.30
2023-05-13T14:27:00.019Z,20.40
2023-05-13T14:29:47.854Z,20.40
2023-05-13T14:32:35.824Z,20.40
2023-05-13T14:35:23.302Z,20.40
2023-05-13T14:38:12.140Z,20.50
2023-05-13T14:40:59.629Z,20.50
2023-05-13T14:43:47.489Z,20.60
2023-05-13T14:46:37.306Z,20.60
2023-05-13T14:49:25.242Z,20.60
2023-05-13T14:52:12.922Z,20.60
2023-05-13T14:55:01.674Z,20.40
2023-05-13T14:57:49.529Z,20.20
2023-05-13T15:00:38.968Z,20.10
2023-05-13T15:03:26.717Z,20.00
2023-05-13T15:06:14.383Z,19.90
2023-05-13T15:09:01.974Z,19.90
2023-05-13T15:11:50.650Z,19.90
2023-05-13T15:14:38.313Z,19.90
2023-05-13T15:17:25.905Z,19.80
2023-05-13T15:20:13.942Z,19.70
2023-05-13T15:23:01.289Z,19.60
2023-05-13T15:25:49.413Z,19.50
2023-05-13T15:28:38.333Z,19.30
2023-05-13T15:31:26.037Z,19.20
2023-05-13T15:34:13.879Z,19.20
2023-05-13T15:37:01.370Z,19.20
2023-05-13T15:39:48.880Z,19.10
2023-05-13T15:42:36.870Z,19.10
2023-05-13T15:45:25.689Z,19.10
2023-05-13T15:48:13.256Z,19.10
2023-05-13T15:51:00.886Z,19.10
2023-05-13T15:53:48.186Z,19.10
2023-05-13T15:56:35.873Z,19.10
2023-05-13T15:59:23.655Z,19.00
2023-05-13T16:02:12.988Z,19.00
2023-05-13T16:05:00.766Z,19.00
2023-05-13T16:07:48.262Z,18.90
2023-05-13T16:10:35.910Z,18.90
2023-05-13T16:13:23.632Z,18.80
2023-05-13T16:16:10.914Z,18.80
2023-05-13T16:18:59.880Z,18.70
2023-05-13T16:21:47.912Z,18.70
2023-05-13T16:24:35.670Z,18.70
2023-05-13T16:27:22.940Z,18.70
2023-05-13T16:30:11.600Z,18.70
2023-05-13T16:32:59.854Z,18.70
2023-05-13T16:35:48.791Z,18.70
2023-05-13T16:38:36.468Z,18.60
2023-05-13T16:41:23.847Z,18.50
2023-05-13T16:44:12.133Z,18.50
2023-05-13T16:46:59.545Z,18.40
2023-05-13T16:49:49.957Z,18.40
2023-05-13T16:52:38.619Z,18.30
2023-05-13T16:55:26.754Z,18.30
2023-05-13T16:58:14.417Z,18.30
2023-05-13T17:01:01.880Z,18.20
2023-05-13T17:03:49.266Z,18.20
2023-05-13T17:06:36.763Z,18.10
2023-05-13T17:09:25.741Z,18.00
2023-05-13T17:12:13.541Z,18.00
2023-05-13T17:15:01.098Z,18.00
2023-05-13T17:17:48.457Z,17.90
2023-05-13T17:20:35.978Z,17.80
2023-05-13T17:23:23.421Z,17.60
2023-05-13T17:26:12.802Z,17.50
2023-05-13T17:29:01.002Z,17.40
2023-05-13T17:31:51.756Z,17.20
2023-05-13T17:34:39.525Z,17.10
2023-05-13T17:37:27.174Z,16.90
2023-05-13T17:40:14.992Z,16.80
2023-05-13T17:43:04.140Z,16.60
2023-05-13T17:45:51.853Z,16.50
2023-05-13T17:48:39.613Z,16.30
2023-05-13T17:51:27.436Z,16.10
2023-05-13T17:54:14.961Z,15.90
2023-05-13T17:57:02.434Z,15.60
2023-05-13T17:59:51.459Z,15.40
2023-05-13T18:02:40.232Z,15.20
2023-05-13T18:05:28.389Z,14.90
2023-05-13T18:08:16.455Z,14.70
2023-05-13T18:11:03.875Z,14.50
2023-05-13T18:13:51.205Z,14.30
2023-05-13T18:16:40.154Z,14.10
2023-05-13T18:19:27.943Z,13.90
2023-05-13T18:22:15.270Z,13.70
2023-05-13T18:25:03.004Z,13.60
2023-05-13T18:27:51.356Z,13.40
2023-05-13T18:30:39.133Z,13.20
2023-05-13T18:33:28.256Z,13.00
2023-05-13T18:36:16.158Z,12.90
2023-05-13T18:39:03.901Z,12.70
2023-05-13T18:41:51.660Z,12.60
2023-05-13T18:44:38.915Z,12.40
2023-05-13T18:47:26.638Z,12.20
2023-05-13T18:50:16.279Z,12.10
2023-05-13T18:53:03.795Z,11.90
2023-05-13T18:55:51.510Z,11.80
2023-05-13T18:58:38.886Z,11.60
2023-05-13T19:01:26.840Z,11.50
2023-05-13T19:04:15.468Z,11.40
2023-05-13T19:07:04.638Z,11.20
2023-05-13T19:09:52.231Z,11.10
2023-05-13T19:12:39.983Z,11.00
2023-05-13T19:15:27.674Z,10.90
2023-05-13T19:18:15.131Z,10.80
2023-05-13T19:21:03.014Z,10.60
2023-05-13T19:23:51.959Z,10.50
2023-05-13T19:26:39.674Z,10.50
2023-05-13T19:29:27.120Z,10.40
2023-05-13T19:32:14.668Z,10.20
2023-05-13T19:35:02.498Z,10.10
2023-05-13T19:37:50.426Z,10.00
2023-05-13T19:40:39.616Z,10.00
2023-05-13T19:43:26.986Z,9.90
2023-05-13T19:46:14.804Z,9.80
2023-05-13T19:49:02.604Z,9.70
2023-05-13T19:51:49.974Z,9.70
2023-05-13T19:54:37.617Z,9.60
2023-05-13T19:57:28.626Z,9.50
2023-05-13T20:00:18.128Z,9.40
2023-05-13T20:03:06.234Z,9.30
2023-05-13T20:05:54.193Z,9.20
2023-05-13T20:08:41.578Z,9.20
2023-05-13T20:11:28.975Z,9.10
2023-05-13T20:14:23.007Z,9.00
2023-05-13T20:17:11.279Z,9.00
2023-05-13T20:19:58.695Z,8.90
2023-05-13T20:22:45.871Z,8.80
2023-05-13T20:25:33.324Z,8.80
2023-05-13T20:28:21.320Z,8.80
2023-05-13T20:31:10.404Z,8.70
2023-05-13T20:33:58.491Z,8.60
2023-05-13T20:36:46.366Z,8.60
2023-05-13T20:39:34.205Z,8.50
2023-05-13T20:42:22.787Z,8.50
2023-05-13T20:45:11.105Z,8.40
2023-05-13T20:48:01.216Z,8.30
2023-05-13T20:50:48.626Z,8.30
2023-05-13T20:53:36.663Z,8.20
2023-05-13T20:56:24.540Z,8.20
2023-05-13T20:59:11.986Z,8.20
2023-05-13T21:01:59.644Z,8.10
2023-05-13T21:04:48.618Z,8.10
2023-05-13T21:07:36.710Z,8.00
2023-05-13T21:10:24.979Z,8.00
2023-05-13T21:13:12.957Z,7.90
2023-05-13T21:16:00.743Z,7.90
2023-05-13T21:18:48.468Z,7.80
2023-05-13T21:21:37.186Z,7.80
2023-05-13T21:24:24.506Z,7.80
2023-05-13T21:27:11.897Z,7.70
2023-05-13T21:29:59.143Z,7.70
2023-05-13T21:32:46.639Z,7.60
2023-05-13T21:35:34.173Z,7.60
2023-05-13T21:38:25.657Z,7.50
2023-05-13T21:41:12.966Z,7.50
2023-05-13T21:44:00.536Z,7.50
2023-05-13T21:46:48.088Z,7.40
2023-05-13T21:49:36.228Z,7.40
2023-05-13T21:52:23.504Z,7.40
2023-05-13T21:55:12.814Z,7.30
2023-05-13T21:58:00.362Z,7.30
2023-05-13T22:00:47.769Z,7.30
2023-05-13T22:03:35.289Z,7.20
2023-05-13T22:06:22.703Z,7.20
2023-05-13T22:09:10.850Z,7.10
2023-05-13T22:11:59.853Z,7.10
2023-05-13T22:14:47.312Z,7.10
2023-05-13T22:17:34.932Z,7.00
2023-05-13T22:20:22.953Z,7.00
2023-05-13T22:23:10.725Z,6.90
2023-05-13T22:25:58.306Z,6.90
2023-05-13T22:28:49.535Z,6.80
2023-05-13T22:31:37.088Z,6.80
2023-05-13T22:34:24.686Z,6.80
2023-05-13T22:37:12.459Z,6.80
2023-05-13T22:40:01.211Z,6.70
2023-05-13T22:42:48.885Z,6.70
2023-05-13T22:45:38.043Z,6.70
2023-05-13T22:48:26.830Z,6.60
2023-05-13T22:51:14.544Z,6.60
2023-05-13T22:54:01.994Z,6.60
2023-05-13T22:56:49.384Z,6.50
2023-05-13T22:59:36.994Z,6.50
2023-05-13T23:02:26.213Z,6.50
2023-05-13T23:05:13.778Z,6.50
2023-05-13T23:08:01.494Z,6.40
2023-05-13T23:10:48.896Z,6.40
2023-05-13T23:13:36.195Z,6.30
2023-05-13T23:16:23.559Z,6.30
2023-05-13T23:19:12.645Z,6.30
2023-05-13T23:22:00.579Z,6.30
2023-05-13T23:24:48.197Z,6.30
2023-05-13T23:27:35.761Z,6.20
2023-05-13T23:30:23.718Z,6.20
2023-05-13T23:33:11.404Z,6.20
2023-05-13T23:36:00.456Z,6.20
2023-05-13T23:38:48.258Z,6.20
2023-05-13T23:41:35.936Z,6.20
2023-05-13T23:44:23.281Z,6.10
2023-05-13T23:47:12.074Z,6.10
2023-05-13T23:49:59.779Z,6.00
2023-05-13T23:52:51.261Z,6.00
2023-05-13T23:55:38.892Z,6.00
2023-05-13T23:58:26.291Z,5.90
